createdAt,value
2022-08-16T00:00:04.334Z,83.31
2022-08-16T00:02:29.469Z,83.26
2022-08-16T00:05:00.252Z,83.29
2022-08-16T00:07:30.543Z,83.65
2022-08-16T00:10:03.906Z,83.52
2022-08-16T00:12:33.170Z,83.87
2022-08-16T00:15:11.685Z,83.92
2022-08-16T00:17:56.361Z,83.85
2022-08-16T00:20:14.921Z,83.99
2022-08-16T00:22:45.251Z,84.07
2022-08-16T00:25:17.503Z,84.15
2022-08-16T00:27:47.229Z,83.75
2022-08-16T00:30:19.798Z,83.72
2022-08-16T00:32:52.813Z,84.10
2022-08-16T00:35:26.994Z,83.94
2022-08-16T00:37:59.548Z,84.54
2022-08-16T00:40:34.399Z,84.35
2022-08-16T00:43:12.011Z,84.54
2022-08-16T00:46:00.273Z,84.40
2022-08-16T00:48:31.140Z,84.56
2022-08-16T00:50:58.737Z,84.55
2022-08-16T00:53:31.111Z,84.77
2022-08-16T00:56:05.256Z,84.67
2022-08-16T00:58:39.352Z,84.90
2022-08-16T01:01:16.302Z,84.79
2022-08-16T01:03:54.435Z,85.14
2022-08-16T01:06:32.626Z,85.09
2022-08-16T01:09:00.073Z,85.05
2022-08-16T01:11:32.843Z,85.21
2022-08-16T01:14:12.316Z,85.29
2022-08-16T01:16:44.205Z,85.21
2022-08-16T01:19:40.867Z,85.17
2022-08-16T01:22:46.863Z,85.07
2022-08-16T01:25:17.097Z,85.04
2022-08-16T01:27:49.365Z,85.17
2022-08-16T01:30:28.761Z,85.24
2022-08-16T01:33:14.511Z,85.33
2022-08-16T01:35:39.185Z,85.27
2022-08-16T01:38:29.588Z,85.63
2022-08-16T01:41:13.285Z,85.46
2022-08-16T01:43:46.113Z,85.24
2022-08-16T01:46:38.256Z,85.46
2022-08-16T01:49:02.395Z,85.65
2022-08-16T01:51:39.305Z,85.48
2022-08-16T01:54:16.780Z,85.64
2022-08-16T01:56:54.187Z,85.83
2022-08-16T01:59:29.227Z,85.84
2022-08-16T02:02:02.837Z,85.82
2022-08-16T02:04:48.835Z,85.92
2022-08-16T02:07:14.806Z,85.75
2022-08-16T02:09:57.497Z,86.11
2022-08-16T02:12:49.512Z,86.47
2022-08-16T02:15:01.039Z,86.81
2022-08-16T02:17:30.542Z,87.00
2022-08-16T02:20:03.259Z,87.23
2022-08-16T02:22:46.692Z,87.29
2022-08-16T02:25:14.638Z,87.34
2022-08-16T02:27:50.653Z,87.44
2022-08-16T02:30:37.403Z,87.38
2022-08-16T02:32:52.926Z,87.30
2022-08-16T02:35:25.695Z,87.21
2022-08-16T02:37:56.157Z,87.18
2022-08-16T02:40:29.172Z,87.07
2022-08-16T02:42:58.468Z,87.04
2022-08-16T02:45:33.440Z,87.20
2022-08-16T02:48:29.024Z,87.41
2022-08-16T02:50:53.901Z,87.50
2022-08-16T02:53:05.992Z,87.58
2022-08-16T02:55:41.217Z,87.42
2022-08-16T02:58:11.611Z,87.32
2022-08-16T03:00:45.633Z,87.20
2022-08-16T03:03:17.542Z,87.33
2022-08-16T03:05:49.993Z,87.55
2022-08-16T03:08:50.254Z,87.69
2022-08-16T03:10:51.680Z,87.75
2022-08-16T03:13:23.830Z,88.00
2022-08-16T03:15:55.800Z,88.23
2022-08-16T03:18:34.457Z,88.28
2022-08-16T03:20:59.727Z,88.27
2022-08-16T03:23:35.797Z,88.27
2022-08-16T03:26:04.142Z,88.45
2022-08-16T03:28:33.380Z,88.58
2022-08-16T03:31:06.152Z,88.90
2022-08-16T03:33:35.980Z,88.97
2022-08-16T03:36:30.959Z,89.45
2022-08-16T03:38:39.944Z,89.53
2022-08-16T03:41:24.439Z,89.59
2022-08-16T03:43:51.224Z,89.80
2022-08-16T03:46:47.729Z,89.56
2022-08-16T03:48:51.565Z,89.54
2022-08-16T03:51:25.384Z,89.37
2022-08-16T03:54:01.292Z,89.23
2022-08-16T03:56:30.476Z,89.04
2022-08-16T03:59:08.276Z,88.84
2022-08-16T04:01:46.353Z,88.83
2022-08-16T04:04:25.061Z,88.63
2022-08-16T04:06:51.308Z,88.93
2022-08-16T04:09:23.200Z,89.19
2022-08-16T04:11:57.533Z,89.40
2022-08-16T04:14:33.394Z,90.01
2022-08-16T04:16:58.103Z,90.11
2022-08-16T04:19:32.969Z,90.28
2022-08-16T04:22:08.548Z,90.57
2022-08-16T04:24:39.537Z,90.60
2022-08-16T04:27:12.583Z,91.09
2022-08-16T04:29:46.484Z,91.28
2022-08-16T04:32:16.863Z,91.34
2022-08-16T04:34:51.829Z,91.33
2022-08-16T04:37:23.100Z,91.53
2022-08-16T04:39:57.660Z,91.39
2022-08-16T04:42:29.708Z,91.46
2022-08-16T04:45:01.884Z,91.26
2022-08-16T04:47:35.614Z,91.12
2022-08-16T04:50:08.339Z,90.95
2022-08-16T04:52:39.177Z,90.88
2022-08-16T04:55:13.647Z,90.60
2022-08-16T04:57:52.618Z,90.51
2022-08-16T05:00:30.869Z,90.26
2022-08-16T05:02:55.853Z,90.07
2022-08-16T05:16:19.750Z,90.12
2022-08-16T05:18:47.976Z,89.91
2022-08-16T05:21:17.585Z,89.47
2022-08-16T05:23:55.398Z,89.02
2022-08-16T05:26:21.174Z,88.66
2022-08-16T05:28:55.501Z,88.31
2022-08-16T05:31:22.281Z,87.75
2022-08-16T05:33:53.517Z,87.06
2022-08-16T05:36:24.905Z,87.32
2022-08-16T05:38:56.136Z,86.86
2022-08-16T05:41:28.625Z,86.69
2022-08-16T05:44:05.325Z,86.23
2022-08-16T05:46:34.571Z,85.46
2022-08-16T05:49:09.410Z,84.56
2022-08-16T05:51:39.860Z,82.18
2022-08-16T05:54:11.650Z,78.61
2022-08-16T05:56:42.963Z,76.87
2022-08-16T05:59:13.949Z,77.39
2022-08-16T06:01:49.210Z,76.79
2022-08-16T06:04:35.639Z,73.49
2022-08-16T06:06:56.420Z,66.36
2022-08-16T06:09:25.326Z,63.21
2022-08-16T06:11:54.666Z,65.31
2022-08-16T06:14:23.947Z,70.60
2022-08-16T06:16:55.689Z,73.83
2022-08-16T06:19:27.053Z,78.00
2022-08-16T06:22:03.020Z,79.58
2022-08-16T06:24:53.390Z,80.92
2022-08-16T06:27:04.882Z,81.81
2022-08-16T06:29:34.722Z,82.52
2022-08-16T06:32:05.381Z,82.30
2022-08-16T06:34:56.858Z,82.45
2022-08-16T06:37:08.827Z,81.86
2022-08-16T06:39:49.552Z,81.53
2022-08-16T06:42:13.347Z,81.13
2022-08-16T06:44:46.534Z,80.63
2022-08-16T06:47:53.746Z,80.36
2022-08-16T06:49:58.447Z,79.03
2022-08-16T06:52:59.786Z,77.65
2022-08-16T06:55:02.173Z,75.37
2022-08-16T06:57:31.614Z,75.56
2022-08-16T07:00:02.963Z,76.35
2022-08-16T07:02:35.811Z,76.90
2022-08-16T07:05:14.974Z,77.35
2022-08-16T07:07:40.059Z,77.91
2022-08-16T07:10:11.606Z,77.36
2022-08-16T07:12:47.485Z,76.24
2022-08-16T07:15:18.682Z,75.68
2022-08-16T07:17:46.373Z,75.16
2022-08-16T07:20:35.386Z,75.19
2022-08-16T07:22:59.152Z,76.05
2022-08-16T07:25:32.795Z,75.50
2022-08-16T07:28:02.844Z,75.10
2022-08-16T07:30:45.196Z,74.75
2022-08-16T07:33:07.436Z,75.38
2022-08-16T07:35:44.311Z,75.81
2022-08-16T07:38:09.997Z,75.81
2022-08-16T07:40:59.639Z,76.37
2022-08-16T07:43:14.803Z,75.90
2022-08-16T07:45:48.264Z,75.66
2022-08-16T07:48:15.372Z,74.84
2022-08-16T07:50:56.214Z,75.32
2022-08-16T07:53:18.241Z,75.15
2022-08-16T07:55:48.359Z,75.09
2022-08-16T07:58:34.801Z,76.50
2022-08-16T08:00:51.922Z,75.97
2022-08-16T08:03:22.415Z,75.48
2022-08-16T08:05:54.838Z,75.01
2022-08-16T08:08:50.511Z,74.14
2022-08-16T08:10:55.413Z,73.71
2022-08-16T08:13:31.015Z,73.35
2022-08-16T08:16:00.065Z,73.26
2022-08-16T08:18:31.055Z,72.91
2022-08-16T08:21:02.486Z,72.18
2022-08-16T08:23:35.167Z,72.25
2022-08-16T08:26:17.748Z,71.11
2022-08-16T08:28:40.439Z,70.62
2022-08-16T08:31:10.332Z,70.02
2022-08-16T08:33:46.742Z,69.65
2022-08-16T08:36:21.830Z,68.68
2022-08-16T08:38:46.261Z,68.43
2022-08-16T08:41:18.852Z,69.21
2022-08-16T08:43:50.761Z,68.88
2022-08-16T08:46:23.649Z,68.09
2022-08-16T08:48:58.354Z,68.16
2022-08-16T08:51:35.533Z,67.87
2022-08-16T08:54:01.069Z,68.26
2022-08-16T08:56:35.151Z,67.70
2022-08-16T08:59:19.681Z,67.24
2022-08-16T09:01:57.760Z,66.49
2022-08-16T09:04:17.623Z,66.18
2022-08-16T09:06:48.568Z,64.99
2022-08-16T09:09:19.403Z,64.59
2022-08-16T09:12:00.259Z,64.84
2022-08-16T09:14:24.019Z,64.04
2022-08-16T09:17:03.675Z,65.18
2022-08-16T09:19:31.966Z,64.89
2022-08-16T09:21:58.481Z,66.36
2022-08-16T09:24:46.396Z,65.22
2022-08-16T09:26:59.416Z,64.32
2022-08-16T09:29:44.764Z,62.87
2022-08-16T09:32:00.401Z,62.81
2022-08-16T09:34:29.758Z,63.08
2022-08-16T09:37:00.242Z,60.71
2022-08-16T09:39:41.596Z,60.82
2022-08-16T09:42:00.842Z,58.92
2022-08-16T09:45:11.321Z,58.74
2022-08-16T09:47:02.436Z,57.77
2022-08-16T09:49:37.108Z,57.26
2022-08-16T09:52:04.926Z,57.26
2022-08-16T09:54:35.497Z,58.95
2022-08-16T09:57:04.914Z,58.95
2022-08-16T09:59:38.493Z,59.63
2022-08-16T10:02:26.290Z,59.71
2022-08-16T10:04:53.088Z,59.80
2022-08-16T10:07:15.068Z,58.01
2022-08-16T10:09:53.818Z,56.81
2022-08-16T10:12:28.242Z,54.71
2022-08-16T10:14:57.871Z,51.92
2022-08-16T10:17:27.963Z,52.46
2022-08-16T10:19:57.813Z,53.21
2022-08-16T10:22:27.408Z,52.93
2022-08-16T10:24:59.987Z,53.18
2022-08-16T10:27:46.959Z,52.78
2022-08-16T10:30:07.030Z,54.22
2022-08-16T10:32:32.160Z,54.95
2022-08-16T10:35:03.797Z,54.14
2022-08-16T10:37:36.239Z,53.70
2022-08-16T10:40:28.692Z,54.16
2022-08-16T10:42:37.909Z,52.12
2022-08-16T10:45:09.917Z,50.84
2022-08-16T10:47:39.558Z,50.60
2022-08-16T10:50:19.850Z,48.56
2022-08-16T10:52:41.294Z,49.43
2022-08-16T10:57:43.559Z,47.67
2022-08-16T11:00:21.256Z,45.86
2022-08-16T11:03:00.184Z,44.45
2022-08-16T11:05:19.098Z,43.40
2022-08-16T11:07:51.920Z,41.50
2022-08-16T11:12:56.461Z,41.36
2022-08-16T11:15:26.904Z,40.82
2022-08-16T11:20:49.307Z,40.56
2022-08-16T11:22:59.764Z,40.05
2022-08-16T11:28:04.053Z,41.97
2022-08-16T11:30:38.818Z,40.43
2022-08-16T11:33:05.536Z,44.59
2022-08-16T11:35:44.389Z,42.99
2022-08-16T11:38:47.285Z,43.65
2022-08-16T11:40:53.142Z,44.10
2022-08-16T11:43:26.601Z,45.53
2022-08-16T11:45:57.550Z,44.11
2022-08-16T11:48:30.862Z,46.01
2022-08-16T11:51:00.708Z,48.42
2022-08-16T11:53:35.890Z,49.19
2022-08-16T11:56:06.182Z,50.29
2022-08-16T11:58:36.808Z,50.04
2022-08-16T12:01:10.652Z,49.88
2022-08-16T12:03:41.923Z,51.43
2022-08-16T12:06:30.354Z,53.51
2022-08-16T12:08:46.981Z,53.59
2022-08-16T12:11:16.645Z,52.55
2022-08-16T12:13:46.761Z,51.78
2022-08-16T12:16:20.472Z,51.96
2022-08-16T12:18:50.424Z,51.47
2022-08-16T12:21:19.803Z,49.61
2022-08-16T12:23:49.158Z,48.30
2022-08-16T12:26:19.659Z,45.47
2022-08-16T12:28:54.692Z,46.02
2022-08-16T12:31:23.024Z,47.94
2022-08-16T12:33:54.372Z,45.74
2022-08-16T12:36:29.931Z,44.67
2022-08-16T12:38:58.785Z,44.92
2022-08-16T12:41:29.001Z,46.96
2022-08-16T12:44:01.288Z,48.56
2022-08-16T12:46:31.412Z,46.00
2022-08-16T12:49:03.366Z,47.20
2022-08-16T12:51:59.864Z,47.13
2022-08-16T12:54:09.741Z,47.19
2022-08-16T12:56:40.270Z,45.97
2022-08-16T12:59:19.858Z,45.20
2022-08-16T13:01:47.896Z,43.48
2022-08-16T13:04:20.650Z,43.63
2022-08-16T13:06:52.339Z,40.59
2022-08-16T13:09:26.867Z,39.87
2022-08-16T13:12:09.674Z,40.62
2022-08-16T13:14:41.750Z,42.45
2022-08-16T13:17:19.140Z,39.57
2022-08-16T13:22:19.701Z,42.47
2022-08-16T13:24:48.158Z,38.39
2022-08-16T13:27:19.226Z,38.34
2022-08-16T13:29:50.266Z,38.53
2022-08-16T13:32:40.135Z,38.17
2022-08-16T13:34:52.295Z,40.49
2022-08-16T13:37:21.603Z,40.47
2022-08-16T13:39:51.330Z,41.13
2022-08-16T13:42:21.035Z,41.30
2022-08-16T13:44:58.094Z,42.08
2022-08-16T13:47:21.511Z,40.21
2022-08-16T13:49:52.763Z,41.67
2022-08-16T13:52:25.615Z,37.91
2022-08-16T13:54:57.213Z,39.39
2022-08-16T13:57:53.175Z,38.44
2022-08-16T13:59:57.855Z,39.99
2022-08-16T14:02:27.493Z,40.99
2022-08-16T14:05:01.915Z,41.83
2022-08-16T14:07:28.116Z,42.25
2022-08-16T14:09:59.601Z,46.42
2022-08-16T14:12:31.366Z,46.54
2022-08-16T14:15:02.778Z,46.08
2022-08-16T14:18:14.879Z,47.61
2022-08-16T14:20:03.383Z,47.52
2022-08-16T14:22:39.945Z,47.19
2022-08-16T14:25:11.681Z,46.32
2022-08-16T14:27:44.356Z,48.39
2022-08-16T14:30:16.284Z,48.80
2022-08-16T14:32:51.181Z,49.34
2022-08-16T14:35:18.388Z,48.97
2022-08-16T14:37:47.569Z,50.04
2022-08-16T14:40:19.389Z,48.34
2022-08-16T14:42:49.395Z,47.91
2022-08-16T14:45:22.411Z,47.07
2022-08-16T14:47:53.500Z,47.22
2022-08-16T14:50:25.976Z,46.68
2022-08-16T14:52:59.538Z,46.98
2022-08-16T14:55:31.477Z,47.56
2022-08-16T14:58:01.628Z,45.54
2022-08-16T15:00:33.139Z,45.34
2022-08-16T15:03:05.742Z,47.71
2022-08-16T15:05:35.144Z,45.29
2022-08-16T15:08:05.410Z,47.92
2022-08-16T15:10:35.005Z,47.56
2022-08-16T15:13:09.927Z,48.08
2022-08-16T15:15:40.627Z,49.02
2022-08-16T15:18:11.989Z,50.34
2022-08-16T15:20:43.338Z,50.75
2022-08-16T15:23:12.852Z,52.06
2022-08-16T15:26:02.923Z,52.06
2022-08-16T15:28:30.993Z,51.42
2022-08-16T15:30:59.661Z,50.07
2022-08-16T15:33:24.007Z,51.37
2022-08-16T15:35:58.312Z,50.67
2022-08-16T15:38:55.149Z,49.36
2022-08-16T15:40:59.059Z,49.84
2022-08-16T15:43:38.904Z,49.20
2022-08-16T15:46:34.538Z,47.41
2022-08-16T15:48:49.721Z,46.78
2022-08-16T15:51:20.889Z,47.10
2022-08-16T15:54:12.136Z,45.43
2022-08-16T15:56:27.773Z,46.09
2022-08-16T15:58:56.668Z,45.66
2022-08-16T16:01:25.954Z,45.77
2022-08-16T16:03:56.005Z,46.52
2022-08-16T16:06:28.804Z,47.49
2022-08-16T16:08:58.141Z,48.78
2022-08-16T16:11:27.903Z,46.61
2022-08-16T16:13:59.087Z,45.96
2022-08-16T16:16:28.700Z,46.92
2022-08-16T16:18:58.052Z,47.24
2022-08-16T16:21:27.522Z,47.25
2022-08-16T16:23:57.724Z,47.83
2022-08-16T16:26:28.897Z,46.81
2022-08-16T16:29:07.867Z,46.99
2022-08-16T16:31:29.472Z,47.04
2022-08-16T16:34:01.071Z,48.05
2022-08-16T16:36:33.298Z,48.99
2022-08-16T16:39:06.006Z,49.09
2022-08-16T16:41:38.624Z,48.28
2022-08-16T16:44:10.127Z,47.93
2022-08-16T16:46:43.213Z,48.64
2022-08-16T16:49:13.853Z,49.52
2022-08-16T16:51:49.720Z,50.60
2022-08-16T16:54:27.712Z,50.49
2022-08-16T16:56:50.331Z,51.57
2022-08-16T16:59:20.240Z,53.26
2022-08-16T17:01:57.813Z,55.06
2022-08-16T17:04:32.044Z,54.63
2022-08-16T17:06:57.303Z,54.65
2022-08-16T17:09:26.542Z,54.65
2022-08-16T17:11:56.088Z,55.12
2022-08-16T17:14:32.776Z,54.95
2022-08-16T17:16:57.283Z,54.95
2022-08-16T17:19:31.731Z,54.79
2022-08-16T17:21:58.919Z,55.10
2022-08-16T17:24:32.002Z,55.16
2022-08-16T17:27:01.249Z,56.70
2022-08-16T17:29:32.815Z,56.70
2022-08-16T17:32:44.621Z,57.96
2022-08-16T17:34:33.529Z,57.59
2022-08-16T17:37:08.200Z,57.15
2022-08-16T17:39:59.577Z,57.64
2022-08-16T17:42:16.002Z,57.36
2022-08-16T17:44:45.911Z,56.67
2022-08-16T17:47:15.191Z,58.19
2022-08-16T17:49:44.468Z,57.99
2022-08-16T17:52:14.696Z,58.64
2022-08-16T17:54:44.226Z,57.24
2022-08-16T17:57:13.608Z,58.49
2022-08-16T17:59:44.487Z,59.53
2022-08-16T18:02:42.302Z,60.20
2022-08-16T18:04:49.561Z,60.30
2022-08-16T18:07:16.193Z,60.87
2022-08-16T18:09:45.503Z,61.29
2022-08-16T18:12:41.586Z,62.34
2022-08-16T18:14:52.492Z,62.97
2022-08-16T18:17:21.197Z,64.40
2022-08-16T18:19:50.537Z,64.40
2022-08-16T18:22:30.255Z,64.27
2022-08-16T18:24:56.688Z,65.18
2022-08-16T18:27:27.423Z,65.93
2022-08-16T18:29:56.978Z,66.91
2022-08-16T18:32:27.623Z,67.72
2022-08-16T18:34:56.917Z,68.30
2022-08-16T18:37:26.188Z,69.01
2022-08-16T18:39:58.067Z,70.10
2022-08-16T18:42:26.465Z,70.68
2022-08-16T18:44:55.975Z,71.05
2022-08-16T18:47:25.198Z,71.89
2022-08-16T18:49:54.457Z,72.18
2022-08-16T18:52:25.945Z,73.49
2022-08-16T18:55:02.733Z,74.62
2022-08-16T18:57:27.008Z,74.73
2022-08-16T18:59:56.332Z,75.22
2022-08-16T19:02:56.792Z,75.55
2022-08-16T19:04:58.693Z,75.40
2022-08-16T19:07:30.419Z,75.82
2022-08-16T19:10:00.012Z,76.13
2022-08-16T19:12:38.273Z,76.39
2022-08-16T19:15:01.249Z,76.78
2022-08-16T19:17:30.768Z,77.42
2022-08-16T19:20:00.103Z,77.53
2022-08-16T19:22:59.448Z,77.54
2022-08-16T19:25:04.418Z,77.83
2022-08-16T19:27:35.965Z,77.86
2022-08-16T19:30:07.543Z,77.97
2022-08-16T19:32:39.243Z,78.47
2022-08-16T19:35:10.237Z,78.70
2022-08-16T19:37:46.618Z,78.95
2022-08-16T19:40:36.067Z,79.35
2022-08-16T19:42:45.501Z,79.91
2022-08-16T19:45:18.866Z,79.87
2022-08-16T19:47:50.701Z,79.96
2022-08-16T19:50:36.084Z,80.84
2022-08-16T19:52:58.123Z,81.49
2022-08-16T19:55:28.465Z,81.84
2022-08-16T19:57:58.724Z,81.60
2022-08-16T20:00:35.646Z,82.02
2022-08-16T20:02:59.215Z,82.05
2022-08-16T20:05:35.517Z,81.87
2022-08-16T20:08:06.333Z,82.18
2022-08-16T20:10:36.007Z,83.05
2022-08-16T20:13:08.618Z,83.46
2022-08-16T20:15:40.660Z,83.58
2022-08-16T20:18:12.465Z,83.46
2022-08-16T20:20:40.436Z,83.98
2022-08-16T20:23:24.987Z,84.51
2022-08-16T20:25:53.763Z,84.47
2022-08-16T20:28:39.466Z,85.20
2022-08-16T20:30:54.308Z,85.29
2022-08-16T20:33:23.725Z,85.39
2022-08-16T20:35:53.049Z,85.24
2022-08-16T20:38:24.200Z,85.15
2022-08-16T20:40:53.546Z,85.34
2022-08-16T20:43:22.853Z,85.57
2022-08-16T20:45:52.206Z,85.85
2022-08-16T20:48:21.500Z,85.84
2022-08-16T20:50:50.877Z,85.37
2022-08-16T20:53:20.177Z,84.93
2022-08-16T20:55:49.577Z,85.35
2022-08-16T20:58:19.115Z,85.59
2022-08-16T21:00:48.664Z,85.54
2022-08-16T21:03:17.937Z,85.79
2022-08-16T21:05:47.807Z,86.47
2022-08-16T21:08:50.385Z,86.69
2022-08-16T21:10:48.618Z,86.79
2022-08-16T21:13:17.938Z,86.46
2022-08-16T21:15:47.325Z,86.38
2022-08-16T21:18:16.613Z,86.04
2022-08-16T21:20:45.996Z,85.49
2022-08-16T21:23:15.564Z,86.00
2022-08-16T21:25:57.731Z,85.62
2022-08-16T21:28:41.910Z,85.21
2022-08-16T21:30:48.757Z,84.92
2022-08-16T21:33:20.004Z,84.74
2022-08-16T21:35:50.108Z,84.69
2022-08-16T21:38:28.579Z,84.85
2022-08-16T21:40:51.795Z,84.89
2022-08-16T21:43:24.156Z,84.65
2022-08-16T21:45:55.977Z,84.39
2022-08-16T21:48:33.517Z,84.44
2022-08-16T21:50:58.077Z,83.86
2022-08-16T21:53:29.512Z,83.52
2022-08-16T21:56:01.100Z,83.17
2022-08-16T21:58:31.166Z,83.00
2022-08-16T22:01:01.090Z,82.89
2022-08-16T22:03:33.031Z,82.72
2022-08-16T22:06:12.723Z,82.34
2022-08-16T22:08:34.233Z,82.21
2022-08-16T22:11:09.099Z,81.86
2022-08-16T22:13:36.874Z,81.54
2022-08-16T22:16:10.365Z,81.28
2022-08-16T22:18:39.712Z,80.91
2022-08-16T22:21:09.004Z,81.18
2022-08-16T22:23:38.552Z,81.03
2022-08-16T22:26:07.910Z,81.74
2022-08-16T22:28:37.272Z,81.82
2022-08-16T22:31:06.837Z,81.44
2022-08-16T22:33:36.181Z,81.49
2022-08-16T22:36:06.585Z,81.74
2022-08-16T22:38:54.701Z,82.19
2022-08-16T22:41:07.217Z,82.31
2022-08-16T22:43:36.597Z,82.66
2022-08-16T22:46:06.201Z,82.19
2022-08-16T22:48:39.372Z,81.93
2022-08-16T22:51:06.580Z,81.47
2022-08-16T22:53:37.473Z,81.11
2022-08-16T22:56:07.367Z,81.07
2022-08-16T22:58:37.402Z,81.17
2022-08-16T23:01:09.361Z,80.92
2022-08-16T23:03:41.132Z,80.97
2022-08-16T23:06:12.187Z,80.92
2022-08-16T23:08:43.029Z,80.79
2022-08-16T23:11:22.835Z,80.42
2022-08-16T23:13:54.716Z,80.68
2022-08-16T23:16:32.831Z,81.09
2022-08-16T23:19:07.727Z,81.48
2022-08-16T23:21:39.425Z,81.82
2022-08-16T23:24:09.661Z,82.17
2022-08-16T23:26:46.919Z,82.30
2022-08-16T23:29:21.944Z,82.42
2022-08-16T23:31:45.324Z,81.99
2022-08-16T23:34:14.605Z,81.96
2022-08-16T23:36:47.043Z,82.06
2022-08-16T23:39:17.284Z,82.28
2022-08-16T23:41:49.239Z,82.42
2022-08-16T23:44:55.517Z,82.74
2022-08-16T23:46:53.983Z,83.02
2022-08-16T23:49:59.137Z,83.55
2022-08-16T23:51:54.626Z,83.63
2022-08-16T23:54:24.233Z,84.32
2022-08-16T23:56:53.943Z,84.58
2022-08-16T23:59:26.250Z,85.22
